Time;durP1;ratioP1;P1;durP2;ratioP2;P2;SDS_P1;SDS_P2;PMS_P1;PMS_P2;Temp;Humidity;BMP_temperature;BMP_pressure;BME280_temperature;BME280_humidity;BME280_pressure;Samples;Min_cycle;Max_cycle;Signal;HPM_P1;HPM_P2
2021/07/31 00:01:14;;;;;;;16.48;11.20;;;;;;;20.29;86.54;99574.59;1752869;81;21362;-83
2021/07/31 00:04:21;;;;;;;24.20;12.25;;;;;;;20.28;86.47;99567.89;1700971;84;21355;-83
2021/07/31 00:07:26;;;;;;;20.95;11.45;;;;;;;20.29;86.40;99563.48;1743152;82;21838;-83
2021/07/31 00:10:35;;;;;;;19.62;12.00;;;;;;;20.30;86.22;99570.72;1700616;84;21387;-83
2021/07/31 00:13:40;;;;;;;14.65;10.93;;;;;;;20.29;86.06;99572.38;1742448;82;21308;-82
2021/07/31 00:16:46;;;;;;;18.32;10.25;;;;;;;20.26;86.04;99577.88;1743823;82;21838;-82
2021/07/31 00:19:51;;;;;;;16.35;11.83;;;;;;;20.24;86.11;99574.53;1742487;82;21179;-82
2021/07/31 00:22:56;;;;;;;21.93;13.62;;;;;;;20.22;86.26;99573.94;1742334;82;22116;-83
2021/07/31 00:26:02;;;;;;;24.30;14.87;;;;;;;20.24;86.31;99569.53;1699771;84;21771;-83
2021/07/31 00:29:09;;;;;;;27.65;17.05;;;;;;;20.26;86.26;99571.48;1744211;82;21299;-83
2021/07/31 00:32:14;;;;;;;30.95;14.85;;;;;;;20.27;86.18;99575.94;1742254;82;21731;-83
2021/07/31 00:35:20;;;;;;;24.77;14.35;;;;;;;20.28;86.08;99571.53;1743762;82;21298;-83
2021/07/31 00:38:26;;;;;;;23.15;13.35;;;;;;;20.28;86.01;99577.61;1742839;82;21195;-83
2021/07/31 00:41:31;;;;;;;21.93;14.30;;;;;;;20.26;86.04;99575.66;1701556;83;21264;-83
2021/07/31 00:44:37;;;;;;;24.40;14.65;;;;;;;20.25;86.08;99569.81;1719132;83;21291;-83
2021/07/31 00:47:42;;;;;;;26.42;14.23;;;;;;;20.22;86.19;99573.94;1756548;81;21684;-83
2021/07/31 00:50:48;;;;;;;29.57;14.60;;;;;;;20.21;86.27;99566.70;1719349;83;21731;-83
2021/07/31 00:53:54;;;;;;;23.87;15.83;;;;;;;20.21;86.24;99560.32;1719087;83;21291;-83
2021/07/31 00:56:59;;;;;;;27.95;15.50;;;;;;;20.22;86.15;99565.61;1757279;81;21326;-83
2021/07/31 01:00:04;;;;;;;24.45;15.38;;;;;;;20.22;85.99;99563.38;1717207;82;21180;-83
2021/07/31 01:03:10;;;;;;;22.48;14.35;;;;;;;20.19;85.78;99562.53;1719200;83;21180;-82
2021/07/31 01:06:15;;;;;;;32.28;14.15;;;;;;;20.14;85.91;99559.97;1757808;81;21361;-83
2021/07/31 01:09:21;;;;;;;26.15;14.98;;;;;;;20.10;86.00;99560.19;1717711;83;21220;-83
2021/07/31 01:12:27;;;;;;;24.18;14.18;;;;;;;20.08;86.21;99560.97;1718327;83;21877;-83
2021/07/31 01:15:33;;;;;;;23.18;14.35;;;;;;;20.06;86.33;99560.41;1757766;81;21228;-83
2021/07/31 01:18:38;;;;;;;19.12;13.10;;;;;;;20.03;86.43;99558.69;1718987;83;21331;-83
2021/07/31 01:21:52;;;;;;;21.17;13.35;;;;;;;20.00;86.40;99565.61;1717990;83;21187;-83
2021/07/31 01:24:59;;;;;;;24.30;12.98;;;;;;;19.95;86.43;99569.70;1758202;81;21243;-83
2021/07/31 01:28:04;;;;;;;22.52;13.65;;;;;;;19.87;86.54;99563.19;1754022;82;21247;-83
2021/07/31 01:31:10;;;;;;;22.22;14.93;;;;;;;19.79;86.66;99567.78;1718009;83;21311;-83
2021/07/31 01:34:15;;;;;;;27.27;16.02;;;;;;;19.74;86.95;99567.16;1718060;83;21335;-83
2021/07/31 01:37:22;;;;;;;27.50;15.30;;;;;;;19.68;87.31;99567.34;1758013;81;21298;-83
2021/07/31 01:40:29;;;;;;;27.07;15.48;;;;;;;19.64;87.46;99567.00;1754710;82;21301;-82
2021/07/31 01:43:33;;;;;;;47.60;19.57;;;;;;;19.60;87.59;99569.44;1710630;83;21335;-82
2021/07/31 01:46:39;;;;;;;35.40;19.50;;;;;;;19.58;87.64;99567.99;1742230;82;21306;-82
2021/07/31 01:49:47;;;;;;;35.50;19.45;;;;;;;19.56;87.73;99572.38;1742532;82;21801;-82
2021/07/31 01:52:54;;;;;;;35.50;19.10;;;;;;;19.59;87.64;99577.98;1743728;82;21321;-82
2021/07/31 01:56:00;;;;;;;43.50;18.73;;;;;;;19.60;87.47;99578.30;1743972;82;21180;-82
2021/07/31 01:59:06;;;;;;;24.55;17.50;;;;;;;19.60;87.37;99579.14;1743267;82;21849;-82
2021/07/31 02:02:11;;;;;;;41.05;18.67;;;;;;;19.61;87.28;99582.20;1699433;83;21678;-82
2021/07/31 02:05:19;;;;;;;31.75;17.98;;;;;;;19.64;87.25;99594.19;1743591;82;21172;-82
2021/07/31 02:08:25;;;;;;;30.23;16.65;;;;;;;19.65;87.25;99583.94;1699240;84;21260;-83
2021/07/31 02:11:30;;;;;;;36.08;17.10;;;;;;;19.66;87.22;99583.67;1742104;82;21311;-82
2021/07/31 02:14:35;;;;;;;33.65;18.15;;;;;;;19.69;87.12;99587.05;1743747;82;21188;-82
2021/07/31 02:17:43;;;;;;;33.15;16.52;;;;;;;19.73;86.96;99587.67;1743501;82;21326;-82
2021/07/31 02:20:50;;;;;;;30.57;17.30;;;;;;;19.75;86.78;99589.63;1743850;82;21192;-82
2021/07/31 02:23:57;;;;;;;30.80;17.42;;;;;;;19.76;86.62;99589.95;1741988;82;21303;-82
2021/07/31 02:27:20;;;;;;;29.18;17.75;;;;;;;19.77;86.53;99590.80;1700559;84;21174;-82
2021/07/31 02:30:28;;;;;;;37.75;18.80;;;;;;;19.80;86.40;99598.59;1742368;82;22599;-82
2021/07/31 02:33:33;;;;;;;29.50;17.70;;;;;;;19.83;86.12;99595.31;1742891;82;21642;-82
2021/07/31 02:36:40;;;;;;;33.45;16.95;;;;;;;19.87;85.89;99599.27;1743527;82;21874;-82
2021/07/31 02:39:49;;;;;;;33.10;16.82;;;;;;;20.00;85.66;99598.91;1700168;84;21312;-82
2021/07/31 02:42:56;;;;;;;28.85;16.90;;;;;;;20.18;85.09;99604.69;1742270;82;21399;-82
2021/07/31 02:46:02;;;;;;;27.42;15.83;;;;;;;20.40;84.32;99604.72;1732331;82;21842;-83
2021/07/31 02:49:07;;;;;;;26.62;15.63;;;;;;;20.62;83.37;99612.55;1732739;83;21335;-83
2021/07/31 02:52:13;;;;;;;33.75;16.87;;;;;;;20.91;82.32;99609.55;1710712;83;21302;-83
2021/07/31 02:55:21;;;;;;;26.42;14.55;;;;;;;21.21;81.12;99610.95;1700653;84;21347;-82
2021/07/31 02:58:25;;;;;;;29.00;15.25;;;;;;;21.55;79.61;99615.74;1733387;83;21819;-82
2021/07/31 03:01:31;;;;;;;35.38;16.82;;;;;;;21.84;78.04;99622.68;1699775;83;21232;-83
2021/07/31 03:04:37;;;;;;;31.93;16.57;;;;;;;22.07;76.59;99617.27;1712031;83;21870;-82
2021/07/31 03:07:45;;;;;;;28.35;17.00;;;;;;;22.26;75.59;99620.48;1733310;83;21307;-83
2021/07/31 03:10:50;;;;;;;31.00;16.42;;;;;;;22.42;74.71;99625.02;1731793;82;21208;-82
2021/07/31 03:13:56;;;;;;;30.70;15.13;;;;;;;22.58;74.02;99627.31;1700778;84;21299;-82
2021/07/31 03:17:02;;;;;;;25.57;14.98;;;;;;;22.72;73.30;99624.86;1733370;83;21291;-82
2021/07/31 03:20:09;;;;;;;20.90;14.78;;;;;;;22.84;72.85;99628.27;1680056;84;21316;-83
2021/07/31 03:23:16;;;;;;;24.43;14.13;;;;;;;23.04;72.53;99628.91;1733973;83;21835;-82
2021/07/31 03:26:21;;;;;;;23.70;13.53;;;;;;;23.21;71.74;99628.13;1682293;84;21307;-82
2021/07/31 03:29:27;;;;;;;29.02;14.53;;;;;;;23.36;71.38;99625.91;1733396;83;21325;-82
2021/07/31 03:32:32;;;;;;;20.25;14.45;;;;;;;23.53;70.67;99629.02;1733655;83;21916;-82
2021/07/31 03:35:38;;;;;;;21.12;12.95;;;;;;;23.67;70.18;99639.38;1733577;83;21169;-82
2021/07/31 03:38:50;;;;;;;18.87;13.38;;;;;;;23.82;69.87;99639.92;1700379;84;21898;-83
2021/07/31 03:41:58;;;;;;;26.62;14.65;;;;;;;23.94;69.32;99636.83;1733310;83;21299;-82
2021/07/31 03:45:03;;;;;;;23.85;14.55;;;;;;;24.00;69.13;99648.30;1734399;81;21212;-82
2021/07/31 03:48:10;;;;;;;26.97;14.63;;;;;;;24.04;69.12;99642.40;1699139;84;21744;-82
2021/07/31 03:51:16;;;;;;;23.45;15.38;;;;;;;24.15;69.07;99637.66;1732700;83;21334;-82
2021/07/31 03:54:22;;;;;;;20.32;14.13;;;;;;;24.25;68.40;99638.20;1733285;83;21212;-82
2021/07/31 03:57:28;;;;;;;29.77;15.80;;;;;;;24.35;67.83;99647.38;1733537;83;21192;-82
2021/07/31 04:00:34;;;;;;;31.97;19.05;;;;;;;24.44;67.49;99641.52;1733258;81;21355;-83
2021/07/31 04:03:41;;;;;;;31.75;18.23;;;;;;;24.48;66.91;99651.02;1733491;83;21330;-83
2021/07/31 04:06:47;;;;;;;27.80;18.45;;;;;;;24.44;66.51;99647.67;1700536;84;21836;-83
2021/07/31 04:10:11;;;;;;;27.22;19.45;;;;;;;24.40;66.39;99653.55;1732536;83;21343;-82
2021/07/31 04:13:28;;;;;;;32.17;18.25;;;;;;;24.36;66.90;99647.69;1730207;83;21296;-83
2021/07/31 04:16:41;;;;;;;26.40;17.25;;;;;;;24.39;66.72;99650.48;1732120;83;21303;-82
2021/07/31 04:19:47;;;;;;;26.52;17.62;;;;;;;24.46;67.14;99652.41;1700636;84;21303;-82
2021/07/31 04:22:55;;;;;;;31.23;19.23;;;;;;;24.52;66.96;99654.09;1731836;83;21343;-82
2021/07/31 04:26:03;;;;;;;30.88;20.45;;;;;;;24.61;66.40;99648.19;1733340;83;21826;-82
2021/07/31 04:29:08;;;;;;;31.55;20.77;;;;;;;24.67;66.23;99654.03;1700629;84;21178;-82
2021/07/31 04:32:13;;;;;;;26.20;20.25;;;;;;;24.72;65.91;99654.58;1732146;83;21315;-82
2021/07/31 04:35:20;;;;;;;34.67;19.37;;;;;;;24.72;65.54;99651.78;1733574;83;21295;-82
2021/07/31 04:38:26;;;;;;;28.25;18.87;;;;;;;24.78;65.57;99658.19;1700587;84;21300;-82
2021/07/31 04:41:32;;;;;;;33.08;21.55;;;;;;;24.87;65.36;99666.25;1733314;83;22548;-82
2021/07/31 04:44:38;;;;;;;33.25;19.37;;;;;;;24.97;65.23;99663.41;1733573;83;21295;-83
2021/07/31 04:47:48;;;;;;;34.70;18.67;;;;;;;25.09;64.79;99663.95;1700300;83;21331;-82
2021/07/31 04:50:53;;;;;;;31.40;17.75;;;;;;;25.20;64.40;99668.36;1743596;82;21322;-82
2021/07/31 04:53:59;;;;;;;21.25;16.90;;;;;;;25.36;64.52;99666.33;1743881;82;21298;-82
2021/07/31 04:57:04;;;;;;;26.70;16.35;;;;;;;25.52;63.82;99668.45;1743897;82;21168;-83
2021/07/31 05:00:10;;;;;;;26.80;17.73;;;;;;;25.63;63.44;99674.23;1741978;81;21215;-82
2021/07/31 05:03:17;;;;;;;21.42;16.32;;;;;;;25.74;63.60;99669.41;1700645;84;21621;-82
2021/07/31 05:06:22;;;;;;;22.87;16.45;;;;;;;25.85;63.39;99670.20;1743904;82;21188;-82
2021/07/31 05:09:30;;;;;;;23.65;15.60;;;;;;;25.98;63.02;99666.72;1700667;84;21303;-83
2021/07/31 05:12:37;;;;;;;24.45;14.30;;;;;;;26.14;62.76;99671.61;1742730;82;21331;-82
2021/07/31 05:15:46;;;;;;;19.17;13.55;;;;;;;26.30;61.90;99668.95;1743451;82;21322;-82
2021/07/31 05:18:53;;;;;;;19.70;13.43;;;;;;;26.43;61.49;99678.64;1743890;82;21302;-82
2021/07/31 05:21:58;;;;;;;21.27;15.05;;;;;;;26.50;61.57;99680.54;1743403;82;21338;-82
2021/07/31 05:25:05;;;;;;;16.48;14.07;;;;;;;26.53;60.79;99690.31;1683013;84;21208;-83
2021/07/31 05:28:10;;;;;;;18.07;14.93;;;;;;;26.53;60.94;99691.14;1743536;81;21320;-83
2021/07/31 05:31:16;;;;;;;16.23;13.43;;;;;;;26.62;61.12;99696.37;1743264;82;21224;-83
2021/07/31 05:34:22;;;;;;;18.50;13.95;;;;;;;26.72;61.67;99689.27;1742851;82;21307;-83
2021/07/31 05:37:31;;;;;;;16.60;12.85;;;;;;;26.85;61.57;99693.88;1742930;82;21318;-83
2021/07/31 05:40:37;;;;;;;22.93;13.03;;;;;;;26.95;60.75;99695.14;1743250;82;21197;-82
2021/07/31 05:43:43;;;;;;;20.27;13.00;;;;;;;26.99;60.44;99690.03;1742917;82;21349;-83
2021/07/31 05:46:49;;;;;;;19.48;12.78;;;;;;;27.09;60.42;99691.91;1742288;81;21345;-82
2021/07/31 05:49:54;;;;;;;18.75;12.23;;;;;;;27.16;60.67;99692.39;1710021;84;21322;-82
2021/07/31 05:53:00;;;;;;;14.40;10.00;;;;;;;27.28;59.60;99697.55;1709738;83;21295;-82
2021/07/31 05:56:05;;;;;;;11.33;9.08;;;;;;;27.35;58.83;99692.41;1707597;83;21874;-83
2021/07/31 05:59:10;;;;;;;11.50;9.78;;;;;;;27.43;57.81;99697.36;1708699;84;21712;-83
2021/07/31 06:02:16;;;;;;;17.50;10.78;;;;;;;27.48;58.08;99697.86;1709239;84;21322;-82
2021/07/31 06:05:22;;;;;;;17.30;10.98;;;;;;;27.62;58.29;99692.28;1709959;84;21243;-82
2021/07/31 06:08:28;;;;;;;15.68;11.68;;;;;;;27.72;57.95;99693.02;1710167;84;21330;-82
2021/07/31 06:11:34;;;;;;;16.90;11.45;;;;;;;27.90;57.97;99690.47;1709849;84;21326;-83
2021/07/31 06:14:45;;;;;;;17.05;10.32;;;;;;;28.08;57.89;99688.77;1686761;84;21310;-83
2021/07/31 06:17:51;;;;;;;14.18;9.43;;;;;;;28.22;56.03;99690.47;1709942;84;21220;-83
2021/07/31 06:20:55;;;;;;;11.70;8.53;;;;;;;28.30;56.29;99687.53;1710523;84;21347;-83
2021/07/31 06:24:02;;;;;;;12.25;9.63;;;;;;;28.38;54.46;99691.08;1709470;83;21195;-83
2021/07/31 06:27:08;;;;;;;11.97;8.65;;;;;;;28.42;54.24;99693.54;1710645;84;21196;-82
2021/07/31 06:30:15;;;;;;;13.70;8.58;;;;;;;28.51;54.07;99693.63;1710579;84;21240;-82
2021/07/31 06:33:21;;;;;;;15.43;10.35;;;;;;;28.59;52.85;99691.52;1708940;84;21346;-82
2021/07/31 06:36:27;;;;;;;14.07;9.10;;;;;;;28.66;53.36;99687.73;1710443;84;21314;-83
2021/07/31 06:39:33;;;;;;;10.13;7.65;;;;;;;28.87;52.19;99685.91;1710426;84;21847;-83
2021/07/31 06:42:39;;;;;;;17.95;9.93;;;;;;;28.87;52.19;99685.91;1710348;84;21362;-83
2021/07/31 06:45:43;;;;;;;11.12;8.00;;;;;;;28.95;50.98;99691.67;1710276;84;21279;-83
2021/07/31 06:48:49;;;;;;;11.85;7.08;;;;;;;29.01;51.12;99686.19;1723767;81;21929;-83
2021/07/31 06:51:56;;;;;;;12.60;8.08;;;;;;;29.04;50.59;99690.38;1749554;82;21184;-83
2021/07/31 06:55:02;;;;;;;7.92;7.10;;;;;;;29.08;50.14;99690.01;1748180;82;21347;-82
2021/07/31 06:58:08;;;;;;;9.78;7.95;;;;;;;29.16;50.79;99689.83;1749485;82;21881;-82
2021/07/31 07:01:20;;;;;;;10.72;7.22;;;;;;;29.21;49.43;99688.30;1707833;84;21235;-82
2021/07/31 07:04:26;;;;;;;8.40;6.78;;;;;;;29.26;49.32;99696.05;1679007;85;21894;-83
2021/07/31 07:07:32;;;;;;;12.37;6.87;;;;;;;29.28;47.84;99693.78;1650164;87;21212;-82
2021/07/31 07:10:38;;;;;;;10.23;7.00;;;;;;;29.26;48.11;99698.88;1680939;85;21318;-83
2021/07/31 07:13:44;;;;;;;11.53;7.75;;;;;;;29.31;48.34;99699.91;1678928;85;21873;-83
2021/07/31 07:16:49;;;;;;;9.83;7.45;;;;;;;29.38;48.50;99700.33;1681929;84;21354;-83
2021/07/31 07:19:55;;;;;;;10.20;6.62;;;;;;;29.41;48.72;99704.77;1700954;84;21716;-82
2021/07/31 07:23:00;;;;;;;12.20;6.03;;;;;;;29.41;47.78;99696.89;1744537;82;21362;-83
2021/07/31 07:26:06;;;;;;;8.18;6.33;;;;;;;29.47;48.18;99701.25;1744274;82;21881;-82
2021/07/31 07:29:12;;;;;;;8.35;6.42;;;;;;;29.49;47.85;99708.22;1744523;82;21346;-83
2021/07/31 07:32:18;;;;;;;10.25;6.35;;;;;;;29.54;47.35;99708.13;1744287;82;21298;-82
2021/07/31 07:35:24;;;;;;;8.45;5.67;;;;;;;29.56;46.91;99701.38;1744602;82;21191;-82
2021/07/31 07:38:31;;;;;;;7.28;5.58;;;;;;;29.48;46.73;99706.56;1744230;82;21295;-82
2021/07/31 07:41:37;;;;;;;8.25;4.25;;;;;;;29.53;46.66;99705.61;1744077;82;21306;-82
2021/07/31 07:44:42;;;;;;;8.85;4.78;;;;;;;29.60;44.30;99703.23;1743705;82;21167;-83
2021/07/31 07:47:49;;;;;;;7.87;4.78;;;;;;;29.45;44.32;99700.72;1744436;82;21865;-82
2021/07/31 07:50:55;;;;;;;8.95;4.92;;;;;;;29.25;44.55;99708.48;1738328;82;21342;-82
2021/07/31 07:54:02;;;;;;;8.08;5.33;;;;;;;29.16;44.95;99700.52;1738289;82;21315;-83
2021/07/31 07:57:12;;;;;;;11.35;5.25;;;;;;;29.25;44.80;99700.03;1738357;82;21188;-82
2021/07/31 08:00:19;;;;;;;5.05;4.47;;;;;;;29.40;43.26;99707.30;1736289;81;21246;-82
2021/07/31 08:03:25;;;;;;;7.95;4.90;;;;;;;29.44;43.34;99708.92;1738286;82;21224;-83
2021/07/31 08:06:30;;;;;;;6.40;4.80;;;;;;;29.64;43.99;99709.91;1738887;82;21605;-83
2021/07/31 08:09:37;;;;;;;7.65;5.08;;;;;;;29.76;44.75;99714.39;1738802;82;21188;-83
2021/07/31 08:12:42;;;;;;;15.15;5.17;;;;;;;29.71;44.60;99717.91;1738866;82;21831;-82
2021/07/31 08:15:48;;;;;;;6.45;5.15;;;;;;;29.56;45.38;99721.92;1737437;82;21217;-82
2021/07/31 08:18:54;;;;;;;8.30;5.10;;;;;;;29.39;46.13;99718.89;1738428;82;21236;-82
2021/07/31 08:21:59;;;;;;;7.22;5.25;;;;;;;29.23;46.60;99723.46;1737451;82;21355;-82
2021/07/31 08:25:03;;;;;;;9.73;4.55;;;;;;;29.06;47.62;99724.66;1737647;82;21177;-82
2021/07/31 08:28:10;;;;;;;9.68;4.40;;;;;;;28.95;47.33;99724.05;1739096;82;21310;-83
2021/07/31 08:31:19;;;;;;;9.30;4.33;;;;;;;29.18;44.05;99717.94;1738845;82;21189;-82
2021/07/31 08:34:24;;;;;;;;;;;;;;;29.18;44.05;99717.94;1741709;82;21921;-83
2021/07/31 08:37:30;;;;;;;6.28;4.37;;;;;;;29.32;44.09;99724.14;1739006;82;20276;-83
2021/07/31 08:40:36;;;;;;;5.75;4.00;;;;;;;29.09;42.60;99718.41;1738879;82;21254;-82
2021/07/31 08:43:42;;;;;;;5.37;4.12;;;;;;;29.09;42.60;99718.41;1738981;82;21351;-83
2021/07/31 08:46:49;;;;;;;4.75;3.95;;;;;;;29.24;44.05;99716.67;1738864;82;21304;-82
2021/07/31 08:49:54;;;;;;;6.40;4.03;;;;;;;29.41;44.03;99716.61;1722213;82;21346;-83
2021/07/31 08:53:00;;;;;;;7.92;4.62;;;;;;;29.53;42.20;99714.89;1743883;82;21385;-82
2021/07/31 08:56:05;;;;;;;4.90;3.95;;;;;;;29.54;41.18;99712.91;1743755;82;21298;-82
2021/07/31 08:59:11;;;;;;;5.47;4.00;;;;;;;29.52;41.88;99709.01;1700852;84;21351;-82
2021/07/31 09:02:16;;;;;;;5.15;3.83;;;;;;;29.79;41.76;99714.34;1675849;85;21184;-82
2021/07/31 09:05:38;;;;;;;4.80;4.25;;;;;;;29.79;41.76;99714.34;1700052;84;21243;-82
2021/07/31 09:08:56;;;;;;;7.40;3.92;;;;;;;29.82;42.42;99708.62;1650521;85;21311;-83
2021/07/31 09:12:07;;;;;;;5.47;4.05;;;;;;;29.82;42.42;99708.62;1693112;84;21236;-83
2021/07/31 09:15:14;;;;;;;5.85;3.92;;;;;;;29.70;41.30;99711.45;1675755;85;21303;-83
2021/07/31 09:18:42;;;;;;;9.95;4.05;;;;;;;29.51;42.90;99719.20;1701113;84;21927;-83
2021/07/31 09:21:43;;;;;;;4.05;3.60;;;;;;;29.39;42.62;99714.09;1676354;85;21319;-82
2021/07/31 09:24:49;;;;;;;6.75;3.98;;;;;;;29.44;43.72;99708.92;1692793;84;21492;-83
2021/07/31 09:27:54;;;;;;;6.22;4.40;;;;;;;29.55;42.86;99718.86;1648725;87;21330;-82
2021/07/31 09:31:01;;;;;;;6.35;4.20;;;;;;;29.62;42.13;99712.77;1648619;87;21358;-82
2021/07/31 09:34:08;;;;;;;5.55;3.45;;;;;;;29.91;40.53;99716.59;1656256;86;21295;-83
2021/07/31 09:37:25;;;;;;;5.28;3.58;;;;;;;29.91;40.53;99716.59;1656117;86;21910;-82
2021/07/31 09:40:38;;;;;;;6.15;3.67;;;;;;;30.06;40.43;99707.73;1656348;86;21319;-83
2021/07/31 09:43:45;;;;;;;7.53;3.90;;;;;;;30.22;40.35;99706.83;1656069;86;21327;-81
2021/07/31 09:47:01;;;;;;;8.60;4.30;;;;;;;30.20;39.53;99702.89;1655224;86;21208;-82
2021/07/31 09:50:04;;;;;;;5.53;3.92;;;;;;;30.17;40.52;99706.95;1656026;86;21362;-82
2021/07/31 09:53:24;;;;;;;4.35;3.35;;;;;;;30.10;40.08;99701.72;1655695;85;21231;-82
2021/07/31 09:56:30;;;;;;;6.92;4.15;;;;;;;29.99;41.26;99696.09;1655028;86;21405;-82
2021/07/31 09:59:35;;;;;;;9.78;3.98;;;;;;;29.94;41.29;99697.05;1655955;86;21322;-82
2021/07/31 10:02:41;;;;;;;5.08;4.00;;;;;;;29.94;38.90;99692.00;1655919;86;21315;-82
2021/07/31 10:05:49;;;;;;;5.53;3.87;;;;;;;29.97;39.38;99692.74;1713378;83;21342;-82
2021/07/31 10:08:58;;;;;;;5.37;3.60;;;;;;;30.11;39.39;99687.87;1714154;83;21311;-82
2021/07/31 10:12:03;;;;;;;5.03;3.50;;;;;;;30.30;39.63;99690.51;1714329;83;21755;-82
2021/07/31 10:15:09;;;;;;;8.70;3.80;;;;;;;30.41;38.03;99688.27;1714216;83;21183;-82
2021/07/31 10:18:19;;;;;;;8.70;3.75;;;;;;;30.45;39.15;99696.34;1714286;83;21302;-82
2021/07/31 10:21:24;;;;;;;5.12;3.80;;;;;;;30.37;38.33;99698.53;1713325;83;21878;-82
2021/07/31 10:24:29;;;;;;;7.25;4.22;;;;;;;30.21;38.52;99695.30;1714197;83;21379;-82
2021/07/31 10:27:35;;;;;;;6.58;4.08;;;;;;;30.12;39.53;99692.38;1712848;83;21712;-82
2021/07/31 10:30:43;;;;;;;7.78;3.77;;;;;;;30.17;39.24;99695.67;1714117;83;21299;-82
2021/07/31 10:33:54;;;;;;;6.58;3.75;;;;;;;30.27;38.95;99692.59;1712798;83;21838;-82
2021/07/31 10:37:03;;;;;;;7.15;4.03;;;;;;;30.39;39.66;99689.98;1712795;83;21390;-82
2021/07/31 10:40:15;;;;;;;5.45;4.28;;;;;;;30.50;39.41;99693.39;1726892;82;21829;-82
2021/07/31 10:43:21;;;;;;;5.40;4.08;;;;;;;30.45;38.69;99686.47;1700511;84;21331;-82
2021/07/31 10:46:27;;;;;;;5.83;4.03;;;;;;;30.30;40.19;99686.28;1714725;83;21180;-82
2021/07/31 10:49:45;;;;;;;8.53;4.00;;;;;;;30.19;40.49;99685.72;1714107;83;21303;-82
2021/07/31 10:53:06;;;;;;;4.75;3.80;;;;;;;30.17;40.05;99681.58;1711251;83;21902;-82
2021/07/31 10:56:11;;;;;;;5.25;4.37;;;;;;;30.27;40.52;99675.08;1719221;83;21185;-82
2021/07/31 10:59:24;;;;;;;8.25;4.67;;;;;;;30.38;39.59;99675.63;1700503;84;21315;-82
2021/07/31 11:02:48;;;;;;;7.80;4.47;;;;;;;30.41;38.51;99682.63;1733610;83;21189;-82
2021/07/31 11:06:03;;;;;;;5.78;4.05;;;;;;;30.27;38.80;99679.31;1700737;84;21303;-82
2021/07/31 11:09:19;;;;;;;4.65;3.98;;;;;;;30.02;39.56;99675.15;1733253;83;21339;-82
2021/07/31 11:12:49;;;;;;;7.75;4.12;;;;;;;29.84;38.30;99676.75;1699155;84;21716;-82
2021/07/31 11:16:17;;;;;;;7.55;3.67;;;;;;;29.76;40.12;99676.34;1733602;83;21342;-82
2021/07/31 11:19:23;;;;;;;9.30;4.30;;;;;;;29.83;36.67;99674.52;1733232;83;21209;-82
2021/07/31 11:22:28;;;;;;;8.80;5.30;;;;;;;29.90;39.22;99676.88;1714972;83;21228;-82
2021/07/31 11:25:33;;;;;;;8.60;4.87;;;;;;;29.91;38.60;99674.30;1733324;83;21248;-82
2021/07/31 11:28:38;;;;;;;13.60;5.28;;;;;;;29.77;39.91;99678.01;1733365;83;21831;-82
2021/07/31 11:31:45;;;;;;;5.60;4.70;;;;;;;29.69;41.21;99675.11;1733495;83;21346;-82
2021/07/31 11:34:54;;;;;;;8.15;5.33;;;;;;;29.66;41.01;99663.92;1733564;83;21295;-82
2021/07/31 11:37:59;;;;;;;7.62;4.62;;;;;;;29.73;39.71;99664.88;1701100;84;21177;-82
2021/07/31 11:41:14;;;;;;;11.88;4.53;;;;;;;29.73;39.71;99664.88;1734221;83;21283;-82
2021/07/31 11:44:22;;;;;;;8.28;4.58;;;;;;;29.82;39.61;99664.36;1699201;84;21311;-83
2021/07/31 11:47:39;;;;;;;9.43;4.33;;;;;;;29.90;40.68;99659.95;1716410;83;21295;-82
2021/07/31 11:50:44;;;;;;;7.92;4.47;;;;;;;29.95;40.39;99658.41;1700749;84;21322;-82
2021/07/31 11:53:52;;;;;;;7.65;5.28;;;;;;;30.02;40.89;99661.62;1738188;81;21768;-82
2021/07/31 11:56:58;;;;;;;8.58;4.40;;;;;;;30.01;40.23;99665.58;1747049;82;21770;-82
2021/07/31 12:00:07;;;;;;;6.70;4.20;;;;;;;29.99;39.48;99652.39;1720018;83;21318;-82
2021/07/31 12:03:33;;;;;;;5.95;4.10;;;;;;;30.04;39.53;99658.73;1757565;81;21187;-83
2021/07/31 12:06:51;;;;;;;5.55;4.53;;;;;;;30.07;40.11;99645.16;1717354;83;21156;-82
2021/07/31 12:10:14;;;;;;;8.38;4.15;;;;;;;30.02;39.31;99655.99;1719166;83;21296;-82
2021/07/31 12:13:18;;;;;;;5.92;4.17;;;;;;;29.95;39.71;99652.78;1757343;81;21144;-82
2021/07/31 12:16:36;;;;;;;7.03;4.35;;;;;;;29.89;39.55;99659.70;1717321;83;21160;-82
2021/07/31 12:19:59;;;;;;;9.25;4.30;;;;;;;29.79;39.58;99651.77;1718742;83;21294;-82
2021/07/31 12:23:06;;;;;;;5.70;4.10;;;;;;;29.80;40.06;99654.00;1756790;81;21782;-82
2021/07/31 12:26:11;;;;;;;7.47;3.70;;;;;;;29.89;40.52;99652.66;1719555;83;21318;-82
2021/07/31 12:29:19;;;;;;;4.40;3.50;;;;;;;29.97;39.60;99653.27;1756029;81;21416;-82
2021/07/31 12:32:35;;;;;;;5.95;4.00;;;;;;;29.95;39.29;99651.37;1686663;83;21725;-82
2021/07/31 12:35:53;;;;;;;5.70;3.85;;;;;;;29.84;39.23;99647.98;1717581;83;21981;-82
2021/07/31 12:38:59;;;;;;;6.03;4.25;;;;;;;29.77;40.61;99657.45;1755964;81;21357;-82
2021/07/31 12:42:03;;;;;;;7.83;4.17;;;;;;;29.68;40.27;99660.19;1758026;81;21302;-82
2021/07/31 12:45:18;;;;;;;5.25;3.98;;;;;;;29.59;39.53;99659.86;1718951;83;22575;-82
2021/07/31 12:48:23;;;;;;;5.30;3.90;;;;;;;29.44;39.10;99661.03;1756940;81;21314;-82
2021/07/31 12:51:29;;;;;;;4.45;3.60;;;;;;;29.35;40.45;99658.13;1719384;83;21310;-83
2021/07/31 12:54:35;;;;;;;6.28;3.33;;;;;;;29.31;38.52;99658.50;1757490;81;21156;-82
2021/07/31 12:57:40;;;;;;;4.35;3.70;;;;;;;29.33;38.90;99659.61;1717394;83;21310;-82
2021/07/31 13:00:46;;;;;;;6.22;3.75;;;;;;;29.38;37.35;99653.86;1754375;81;21521;-82
2021/07/31 13:03:52;;;;;;;5.12;3.60;;;;;;;29.38;37.35;99653.86;1705820;84;21186;-82
2021/07/31 13:06:57;;;;;;;6.10;4.08;;;;;;;29.36;36.93;99649.10;1726076;82;21303;-82
2021/07/31 13:10:03;;;;;;;7.83;4.08;;;;;;;29.44;36.94;99649.19;1746677;82;21310;-82
2021/07/31 13:13:11;;;;;;;3.90;3.27;;;;;;;29.50;36.75;99647.08;1745603;82;21900;-82
2021/07/31 13:16:17;;;;;;;4.95;3.45;;;;;;;29.57;37.05;99651.74;1746585;82;21314;-82
2021/07/31 13:19:22;;;;;;;5.75;3.30;;;;;;;29.65;36.83;99653.80;1745459;82;21663;-82
2021/07/31 13:22:27;;;;;;;6.35;3.70;;;;;;;29.72;36.77;99650.53;1746169;82;21311;-82
2021/07/31 13:25:32;;;;;;;8.03;4.35;;;;;;;29.77;38.19;99644.19;1746057;82;21299;-82
2021/07/31 13:28:40;;;;;;;6.70;3.72;;;;;;;29.79;37.39;99646.70;1746699;82;21326;-82
2021/07/31 13:31:46;;;;;;;6.42;3.67;;;;;;;29.77;38.85;99647.00;1746984;82;21188;-82
2021/07/31 13:34:52;;;;;;;6.75;3.80;;;;;;;29.71;38.42;99652.52;1746625;82;21294;-82
2021/07/31 13:37:59;;;;;;;8.55;4.20;;;;;;;29.65;37.91;99653.80;1746854;82;21302;-82
2021/07/31 13:41:05;;;;;;;7.28;3.12;;;;;;;29.55;38.27;99654.05;1746761;82;21346;-82
2021/07/31 13:44:24;;;;;;;10.08;3.58;;;;;;;29.52;38.52;99653.24;1746182;82;21322;-82
2021/07/31 13:47:29;;;;;;;12.80;3.95;;;;;;;29.43;39.04;99649.52;1745430;82;21763;-82
2021/07/31 13:50:35;;;;;;;6.20;3.40;;;;;;;29.45;39.57;99652.83;1745506;82;21346;-82
2021/07/31 13:53:40;;;;;;;10.08;3.90;;;;;;;29.47;40.43;99652.78;1745393;82;21354;-82
2021/07/31 13:56:46;;;;;;;9.18;4.15;;;;;;;29.44;41.19;99651.17;1740599;81;21242;-82
2021/07/31 13:59:52;;;;;;;7.25;3.65;;;;;;;29.41;41.04;99646.20;1736120;82;21192;-82
2021/07/31 14:02:59;;;;;;;5.42;4.08;;;;;;;29.40;41.27;99651.55;1736728;82;21184;-82
2021/07/31 14:06:05;;;;;;;4.67;4.00;;;;;;;29.39;39.96;99652.70;1736721;82;21708;-82
2021/07/31 14:09:10;;;;;;;4.75;3.60;;;;;;;29.39;39.02;99642.27;1736617;82;21188;-82
2021/07/31 14:12:16;;;;;;;5.50;3.90;;;;;;;29.40;39.52;99647.32;1736970;82;21303;-82
2021/07/31 14:15:21;;;;;;;4.87;3.85;;;;;;;29.37;40.49;99645.16;1735915;82;21878;-82
2021/07/31 14:18:27;;;;;;;5.83;4.03;;;;;;;29.36;39.39;99642.92;1735390;82;21192;-82
2021/07/31 14:21:33;;;;;;;5.97;4.00;;;;;;;29.36;40.28;99652.78;1736680;82;22527;-82
2021/07/31 14:24:38;;;;;;;5.78;3.62;;;;;;;29.36;39.74;99646.28;1736848;82;21220;-82
2021/07/31 14:27:44;;;;;;;6.58;3.60;;;;;;;29.37;40.08;99642.34;1736857;82;21299;-82
2021/07/31 14:30:49;;;;;;;4.58;4.15;;;;;;;29.33;41.15;99636.50;1735418;82;21314;-82
2021/07/31 14:33:54;;;;;;;4.70;4.10;;;;;;;29.33;41.15;99636.50;1736844;82;21231;-82